createdAt,value
2022-10-22T00:03:57.802Z,81.13
2022-10-22T00:09:00.706Z,81.35
2022-10-22T00:14:03.686Z,81.32
2022-10-22T00:19:06.488Z,81.65
2022-10-22T00:24:09.192Z,81.74
2022-10-22T00:29:11.805Z,81.57
2022-10-22T00:34:14.482Z,81.35
2022-10-22T00:39:19.434Z,81.25
2022-10-22T00:44:59.560Z,81.34
2022-10-22T00:50:05.184Z,81.42
2022-10-22T00:55:08.683Z,81.59
2022-10-22T01:00:12.393Z,81.70
2022-10-22T01:05:15.412Z,81.44
2022-10-22T01:10:21.389Z,81.56
2022-10-22T01:15:38.413Z,81.91
2022-10-22T01:20:56.595Z,82.05
2022-10-22T01:26:30.408Z,82.13
2022-10-22T01:31:39.885Z,82.37
2022-10-22T01:36:43.993Z,82.51
2022-10-22T01:41:47.080Z,82.79
2022-10-22T01:46:54.832Z,82.95
2022-10-22T01:52:26.941Z,83.40
2022-10-22T01:57:42.536Z,83.64
2022-10-22T02:03:02.260Z,83.88
2022-10-22T02:08:10.903Z,84.10
2022-10-22T02:13:18.438Z,84.03
2022-10-22T02:18:26.102Z,83.93
2022-10-22T02:23:28.978Z,84.52
2022-10-22T02:28:48.191Z,84.86
2022-10-22T02:33:55.925Z,84.87
2022-10-22T02:38:59.285Z,85.09
2022-10-22T02:44:03.239Z,85.10
2022-10-22T02:49:05.939Z,85.82
2022-10-22T02:54:08.522Z,85.78
2022-10-22T02:59:11.437Z,85.95
2022-10-22T03:04:14.060Z,86.17
2022-10-22T03:09:20.049Z,86.10
2022-10-22T03:14:25.475Z,86.26
2022-10-22T03:19:28.099Z,86.13
2022-10-22T03:24:44.695Z,86.06
2022-10-22T03:29:49.626Z,86.12
2022-10-22T03:34:52.373Z,86.37
2022-10-22T03:39:55.854Z,86.77
2022-10-22T03:44:58.451Z,86.75
2022-10-22T03:50:01.057Z,86.84
2022-10-22T03:55:04.964Z,86.77
2022-10-22T04:00:09.030Z,86.90
2022-10-22T04:05:11.744Z,87.27
2022-10-22T04:10:14.512Z,87.50
2022-10-22T04:15:17.545Z,87.40
2022-10-22T04:20:20.219Z,87.32
2022-10-22T04:25:22.817Z,87.43
2022-10-22T04:30:25.461Z,87.82
2022-10-22T04:35:28.494Z,88.12
2022-10-22T04:40:31.319Z,88.02
2022-10-22T04:45:35.014Z,87.67
2022-10-22T04:50:37.742Z,87.75
2022-10-22T04:55:40.350Z,87.89
2022-10-22T05:00:43.050Z,88.00
2022-10-22T05:05:45.838Z,87.90
2022-10-22T05:10:48.428Z,87.95
2022-10-22T05:15:51.016Z,87.89
2022-10-22T05:20:53.618Z,88.27
2022-10-22T05:25:56.603Z,88.61
2022-10-22T05:31:00.542Z,88.45
2022-10-22T05:36:05.700Z,88.20
2022-10-22T05:41:12.739Z,88.18
2022-10-22T05:46:22.165Z,88.59
2022-10-22T05:51:28.087Z,88.87
2022-10-22T05:56:32.204Z,88.84
2022-10-22T06:01:35.704Z,88.61
2022-10-22T06:06:42.879Z,88.83
2022-10-22T06:11:46.552Z,89.45
2022-10-22T06:16:50.534Z,89.35
2022-10-22T06:21:53.556Z,89.01
2022-10-22T06:26:56.553Z,88.96
2022-10-22T06:31:59.151Z,89.20
2022-10-22T06:37:01.859Z,89.53
2022-10-22T06:42:04.659Z,89.92
2022-10-22T06:47:07.295Z,89.93
2022-10-22T06:52:09.946Z,89.64
2022-10-22T06:57:12.745Z,89.39
2022-10-22T07:02:15.556Z,89.30
2022-10-22T07:07:18.323Z,89.19
2022-10-22T07:12:20.941Z,89.23
2022-10-22T07:17:23.538Z,89.32
2022-10-22T07:22:26.838Z,89.81
2022-10-22T07:27:29.566Z,89.62
2022-10-22T07:32:32.183Z,89.63
2022-10-22T07:37:34.859Z,89.46
2022-10-22T07:42:37.662Z,89.30
2022-10-22T07:47:40.534Z,89.45
2022-10-22T07:52:44.552Z,89.95
2022-10-22T07:57:47.294Z,90.04
2022-10-22T08:02:49.990Z,89.92
2022-10-22T08:07:52.633Z,89.74
2022-10-22T08:12:55.377Z,89.93
2022-10-22T08:17:58.071Z,90.04
2022-10-22T08:23:00.917Z,90.50
2022-10-22T08:28:03.740Z,90.41
2022-10-22T08:33:06.419Z,90.61
2022-10-22T08:38:09.407Z,90.82
2022-10-22T08:43:24.044Z,91.21
2022-10-22T08:48:45.819Z,91.58
2022-10-22T08:53:53.736Z,91.86
2022-10-22T08:59:04.365Z,92.09
2022-10-22T09:04:17.986Z,92.42
2022-10-22T09:09:21.552Z,92.93
2022-10-22T09:14:25.565Z,92.67
2022-10-22T09:19:40.308Z,93.15
2022-10-22T09:24:48.776Z,93.47
2022-10-22T09:29:51.414Z,93.44
2022-10-22T09:34:58.344Z,93.29
2022-10-22T09:40:05.510Z,93.29
2022-10-22T09:45:18.149Z,93.44
2022-10-22T09:50:44.332Z,94.21
2022-10-22T09:55:53.110Z,94.18
2022-10-22T10:00:58.529Z,94.02
2022-10-22T10:06:05.854Z,93.85
2022-10-22T10:11:13.448Z,93.85
2022-10-22T10:16:26.393Z,93.57
2022-10-22T10:22:02.546Z,93.62
2022-10-22T10:27:28.311Z,93.98
2022-10-22T10:32:37.226Z,94.30
2022-10-22T10:37:47.202Z,93.96
2022-10-22T10:42:58.095Z,93.80
2022-10-22T10:48:10.133Z,94.29
2022-10-22T10:53:27.887Z,94.42
2022-10-22T10:58:36.450Z,93.98
2022-10-22T11:03:44.883Z,94.15
2022-10-22T11:08:56.404Z,93.90
2022-10-22T11:14:11.640Z,94.44
2022-10-22T11:19:51.003Z,95.10
2022-10-22T11:25:03.204Z,95.32
2022-10-22T11:30:13.490Z,95.21
2022-10-22T11:35:25.684Z,95.23
2022-10-22T11:40:28.725Z,95.07
2022-10-22T11:45:38.405Z,95.02
2022-10-22T11:50:50.928Z,94.84
2022-10-22T11:55:56.269Z,94.91
2022-10-22T12:01:02.165Z,95.35
2022-10-22T12:06:15.803Z,95.92
2022-10-22T12:11:36.352Z,96.15
2022-10-22T12:16:55.818Z,96.57
2022-10-22T12:22:13.069Z,96.60
2022-10-22T12:27:23.575Z,97.17
2022-10-22T12:32:35.291Z,97.54
2022-10-22T12:37:38.686Z,98.28
2022-10-22T12:42:48.428Z,98.41
2022-10-22T12:47:55.913Z,99.00
2022-10-22T12:52:59.042Z,98.97
2022-10-22T12:58:06.468Z,99.13
2022-10-22T13:03:46.039Z,99.28
2022-10-22T13:09:06.582Z,99.63
2022-10-22T13:14:21.629Z,99.92
2022-10-22T13:19:41.756Z,100.00
2022-10-22T13:24:51.363Z,100.00
2022-10-22T13:29:56.138Z,100.00
2022-10-22T13:35:01.440Z,100.00
2022-10-22T13:40:12.181Z,100.00
2022-10-22T13:45:15.190Z,100.00
2022-10-22T13:50:19.776Z,100.00
2022-10-22T13:55:25.833Z,100.00
2022-10-22T14:00:28.602Z,100.00
2022-10-22T14:05:32.668Z,100.00
2022-10-22T14:10:35.666Z,100.00
2022-10-22T14:15:39.055Z,100.00
2022-10-22T14:20:42.479Z,100.00
2022-10-22T14:25:45.443Z,100.00
2022-10-22T14:30:48.406Z,100.00
2022-10-22T14:35:51.711Z,100.00
2022-10-22T14:40:54.894Z,100.00
2022-10-22T14:45:57.912Z,100.00
2022-10-22T14:51:00.532Z,100.00
2022-10-22T14:56:03.439Z,100.00
2022-10-22T15:01:06.589Z,100.00
2022-10-22T15:06:09.344Z,100.00
2022-10-22T15:11:12.817Z,100.00
2022-10-22T15:16:16.674Z,100.00
2022-10-22T15:21:23.302Z,100.00
2022-10-22T15:26:25.804Z,100.00
2022-10-22T15:31:47.123Z,100.00
2022-10-22T15:36:50.361Z,100.00
2022-10-22T15:41:54.544Z,100.00
2022-10-22T15:46:58.407Z,100.00
2022-10-22T15:52:01.486Z,100.00
2022-10-22T15:57:08.625Z,100.00
2022-10-22T16:02:11.800Z,100.00
2022-10-22T16:07:14.462Z,100.00
2022-10-22T16:12:17.415Z,100.00
2022-10-22T16:17:20.305Z,100.00
2022-10-22T16:22:22.954Z,100.00
2022-10-22T16:27:25.702Z,100.00
2022-10-22T16:32:28.406Z,100.00
2022-10-22T16:37:31.612Z,100.00
2022-10-22T16:42:34.311Z,100.00
2022-10-22T16:47:37.521Z,100.00
2022-10-22T16:52:40.221Z,100.00
2022-10-22T16:57:43.154Z,100.00
2022-10-22T17:02:52.073Z,100.00
2022-10-22T17:07:54.767Z,100.00
2022-10-22T17:12:57.421Z,100.00
2022-10-22T17:18:00.883Z,100.00
2022-10-22T17:23:03.526Z,100.00
2022-10-22T17:28:06.154Z,100.00
2022-10-22T17:33:09.316Z,100.00
2022-10-22T17:38:13.098Z,100.00
2022-10-22T17:43:15.809Z,100.00
2022-10-22T17:48:18.432Z,100.00
2022-10-22T17:53:21.051Z,100.00
2022-10-22T17:58:23.727Z,100.00
2022-10-22T18:03:27.983Z,100.00
2022-10-22T18:08:30.780Z,100.00
2022-10-22T18:13:33.428Z,100.00
2022-10-22T18:18:36.551Z,100.00
2022-10-22T18:23:39.193Z,100.00
2022-10-22T18:28:41.843Z,100.00
2022-10-22T18:33:44.576Z,100.00
2022-10-22T18:38:51.702Z,100.00
2022-10-22T18:44:00.076Z,100.00
2022-10-22T18:49:02.732Z,100.00
2022-10-22T18:54:21.684Z,100.00
2022-10-22T18:59:27.000Z,100.00
2022-10-22T19:04:36.836Z,100.00
2022-10-22T19:09:41.050Z,100.00
2022-10-22T19:14:43.702Z,100.00
2022-10-22T19:19:46.359Z,100.00
2022-10-22T19:24:49.851Z,100.00
2022-10-22T19:29:52.488Z,100.00
2022-10-22T19:34:55.140Z,100.00
2022-10-22T19:39:57.748Z,100.00
2022-10-22T19:45:00.351Z,100.00
2022-10-22T19:50:03.115Z,100.00
2022-10-22T19:55:05.918Z,100.00
2022-10-22T20:00:09.464Z,100.00
2022-10-22T20:05:12.311Z,100.00
2022-10-22T20:10:15.140Z,100.00
2022-10-22T20:15:18.757Z,100.00
2022-10-22T20:20:26.209Z,100.00
2022-10-22T20:25:29.365Z,100.00
2022-10-22T20:30:32.076Z,100.00
2022-10-22T20:35:36.103Z,100.00
2022-10-22T20:40:38.845Z,100.00
2022-10-22T20:45:41.442Z,100.00
2022-10-22T20:50:44.202Z,100.00
2022-10-22T20:55:48.158Z,100.00
2022-10-22T21:00:51.510Z,100.00
2022-10-22T21:05:54.236Z,100.00
2022-10-22T21:10:56.947Z,100.00
2022-10-22T21:15:59.876Z,100.00
2022-10-22T21:21:05.499Z,100.00
2022-10-22T21:26:08.151Z,100.00
2022-10-22T21:31:18.799Z,100.00
2022-10-22T21:36:23.582Z,100.00
2022-10-22T21:41:26.452Z,100.00
2022-10-22T21:46:29.763Z,100.00
2022-10-22T21:51:35.215Z,100.00
2022-10-22T21:56:38.031Z,100.00
2022-10-22T22:01:41.200Z,100.00
2022-10-22T22:06:43.900Z,100.00
2022-10-22T22:11:46.587Z,100.00
2022-10-22T22:16:49.236Z,100.00
2022-10-22T22:21:52.963Z,100.00
2022-10-22T22:26:55.641Z,100.00
2022-10-22T22:31:58.351Z,100.00
2022-10-22T22:37:01.051Z,100.00
2022-10-22T22:42:04.058Z,100.00
2022-10-22T22:47:06.756Z,100.00
2022-10-22T22:52:09.885Z,100.00
2022-10-22T22:57:14.512Z,100.00
2022-10-22T23:02:17.206Z,100.00
2022-10-22T23:07:19.908Z,100.00
2022-10-22T23:12:22.720Z,100.00
2022-10-22T23:17:25.443Z,100.00
2022-10-22T23:22:28.179Z,100.00
2022-10-22T23:27:30.802Z,100.00
2022-10-22T23:32:33.421Z,100.00
2022-10-22T23:37:36.083Z,100.00
2022-10-22T23:47:46.208Z,100.00
2022-10-22T23:52:48.904Z,100.00
2022-10-22T23:57:51.602Z,100.00
